createdAt,value
2023-05-14T00:00:53.388Z,96218.94
2023-05-14T00:02:25.218Z,96222.41
2023-05-14T00:03:58.562Z,96223.28
2023-05-14T00:05:30.473Z,96218.59
2023-05-14T00:07:02.113Z,96216.34
2023-05-14T00:08:33.826Z,96211.66
2023-05-14T00:10:06.747Z,96211.28
2023-05-14T00:11:38.493Z,96209.94
2023-05-14T00:13:10.202Z,96222.44
2023-05-14T00:14:41.906Z,96218.41
2023-05-14T00:16:13.724Z,96216.41
2023-05-14T00:17:45.695Z,96214.09
2023-05-14T00:19:19.150Z,96220.06
2023-05-14T00:20:54.605Z,96212.03
2023-05-14T00:22:26.285Z,96219.25
2023-05-14T00:23:57.952Z,96215.59
2023-05-14T00:25:30.017Z,96208.59
2023-05-14T00:27:01.609Z,96214.44
2023-05-14T00:28:33.191Z,96209.38
2023-05-14T00:30:07.002Z,96216.25
2023-05-14T00:31:38.704Z,96210.44
2023-05-14T00:33:10.319Z,96210.50
2023-05-14T00:34:43.336Z,96213.13
2023-05-14T00:36:14.929Z,96207.84
2023-05-14T00:37:46.595Z,96207.72
2023-05-14T00:39:18.221Z,96212.34
2023-05-14T00:40:52.819Z,96203.56
2023-05-14T00:42:24.429Z,96207.13
2023-05-14T00:43:56.076Z,96203.16
2023-05-14T00:45:27.828Z,96212.72
2023-05-14T00:46:59.788Z,96206.59
2023-05-14T00:48:31.496Z,96202.44
2023-05-14T00:50:05.730Z,96212.13
2023-05-14T00:51:38.076Z,96203.22
2023-05-14T00:53:10.713Z,96205.97
2023-05-14T00:54:42.799Z,96197.88
2023-05-14T00:56:14.588Z,96205.88
2023-05-14T00:57:46.294Z,96202.16
2023-05-14T00:59:17.954Z,96203.00
2023-05-14T01:00:49.842Z,96202.94
2023-05-14T01:02:21.822Z,96198.50
2023-05-14T01:03:54.912Z,96201.03
2023-05-14T01:05:28.217Z,96207.16
2023-05-14T01:07:05.396Z,96196.47
2023-05-14T01:08:42.125Z,96195.81
2023-05-14T01:10:15.989Z,96209.94
2023-05-14T01:11:50.173Z,96196.13
2023-05-14T01:13:27.368Z,96196.59
2023-05-14T01:15:02.105Z,96194.34
2023-05-14T01:16:34.093Z,96200.75
2023-05-14T01:18:07.933Z,96189.00
2023-05-14T01:19:40.528Z,96200.81
2023-05-14T01:21:35.291Z,96196.19
2023-05-14T01:23:06.908Z,96202.22
2023-05-14T01:24:38.625Z,96199.97
2023-05-14T01:26:10.443Z,96200.75
2023-05-14T01:27:43.946Z,96198.91
2023-05-14T01:29:17.880Z,96199.28
2023-05-14T01:30:54.275Z,96198.56
2023-05-14T01:32:26.014Z,96200.03
2023-05-14T01:33:57.650Z,96209.94
2023-05-14T01:35:29.897Z,96205.03
2023-05-14T01:37:03.004Z,96199.25
2023-05-14T01:38:34.776Z,96200.66
2023-05-14T01:40:07.793Z,96201.25
2023-05-14T01:41:39.530Z,96206.59
2023-05-14T01:43:11.787Z,96199.56
2023-05-14T01:44:43.472Z,96192.59
2023-05-14T01:46:18.149Z,96197.94
2023-05-14T01:47:50.017Z,96199.13
2023-05-14T01:49:21.871Z,96198.38
2023-05-14T01:50:53.530Z,96197.28
2023-05-14T01:52:26.622Z,96197.19
2023-05-14T01:53:58.330Z,96191.84
2023-05-14T01:55:30.001Z,96197.81
2023-05-14T01:57:01.665Z,96194.69
2023-05-14T01:58:33.323Z,96194.91
2023-05-14T02:00:06.240Z,96180.56
2023-05-14T02:01:37.929Z,96183.97
2023-05-14T02:03:09.696Z,96192.38
2023-05-14T02:04:41.416Z,96188.41
2023-05-14T02:06:13.116Z,96180.38
2023-05-14T02:07:46.139Z,96183.41
2023-05-14T02:09:18.225Z,96185.84
2023-05-14T02:10:49.984Z,96185.63
2023-05-14T02:12:22.453Z,96181.84
2023-05-14T02:13:54.130Z,96179.16
2023-05-14T02:15:25.812Z,96185.56
2023-05-14T02:16:57.604Z,96174.53
2023-05-14T02:18:29.312Z,96173.13
2023-05-14T02:20:00.955Z,96170.44
2023-05-14T02:21:32.701Z,96176.19
2023-05-14T02:23:05.744Z,96172.00
2023-05-14T02:24:37.381Z,96173.00
2023-05-14T02:26:09.788Z,96172.94
2023-05-14T02:27:41.516Z,96172.84
2023-05-14T02:29:13.163Z,96167.16
2023-05-14T02:30:44.950Z,96174.13
2023-05-14T02:32:16.714Z,96172.56
2023-05-14T02:33:48.471Z,96171.44
2023-05-14T02:35:20.105Z,96170.38
2023-05-14T02:36:51.762Z,96180.66
2023-05-14T02:38:25.769Z,96176.38
2023-05-14T02:39:57.523Z,96176.06
2023-05-14T02:41:29.135Z,96174.41
2023-05-14T02:43:00.808Z,96176.63
2023-05-14T02:44:32.492Z,96180.28
2023-05-14T02:46:04.393Z,96175.78
2023-05-14T02:47:37.988Z,96169.06
2023-05-14T02:49:10.137Z,96165.53
2023-05-14T02:50:41.778Z,96164.91
2023-05-14T02:52:13.413Z,96164.97
2023-05-14T02:53:46.473Z,96157.50
2023-05-14T02:55:18.184Z,96165.16
2023-05-14T02:56:49.836Z,96157.59
2023-05-14T02:58:25.065Z,96159.81
2023-05-14T02:59:59.974Z,96160.69
2023-05-14T03:01:32.108Z,96155.25
2023-05-14T03:03:04.329Z,96156.38
2023-05-14T03:04:36.581Z,96153.53
2023-05-14T03:06:08.323Z,96148.53
2023-05-14T03:07:39.998Z,96157.09
2023-05-14T03:09:13.045Z,96155.34
2023-05-14T03:10:44.717Z,96145.78
2023-05-14T03:12:16.436Z,96149.84
2023-05-14T03:13:48.146Z,96152.59
2023-05-14T03:15:19.942Z,96147.69
2023-05-14T03:16:51.707Z,96148.78
2023-05-14T03:18:23.430Z,96146.34
2023-05-14T03:19:55.115Z,96144.56
2023-05-14T03:21:27.321Z,96147.69
2023-05-14T03:22:59.051Z,96149.66
2023-05-14T03:24:32.298Z,96156.88
2023-05-14T03:26:05.001Z,96150.41
2023-05-14T03:27:36.697Z,96148.88
2023-05-14T03:29:09.778Z,96143.53
2023-05-14T03:30:41.636Z,96149.66
2023-05-14T03:32:13.296Z,96143.53
2023-05-14T03:33:44.950Z,96149.13
2023-05-14T03:35:16.752Z,96152.38
2023-05-14T03:36:48.499Z,96147.81
2023-05-14T03:38:20.154Z,96145.13
2023-05-14T03:39:53.470Z,96142.47
2023-05-14T03:41:25.148Z,96152.31
2023-05-14T03:42:56.754Z,96138.19
2023-05-14T03:44:28.602Z,96150.28
2023-05-14T03:46:00.333Z,96153.66
2023-05-14T03:47:32.058Z,96143.38
2023-05-14T03:49:03.879Z,96151.75
2023-05-14T03:50:35.817Z,96145.28
2023-05-14T03:52:07.485Z,96144.50
2023-05-14T03:53:39.114Z,96151.13
2023-05-14T03:55:12.229Z,96145.28
2023-05-14T03:56:43.913Z,96148.25
2023-05-14T03:58:15.702Z,96145.22
2023-05-14T03:59:47.368Z,96146.78
2023-05-14T04:01:19.077Z,96145.03
2023-05-14T04:02:50.913Z,96148.78
2023-05-14T04:04:22.663Z,96147.59
2023-05-14T04:05:54.328Z,96146.28
2023-05-14T04:07:26.030Z,96142.00
2023-05-14T04:08:57.644Z,96146.69
2023-05-14T04:10:32.112Z,96150.63
2023-05-14T04:12:04.294Z,96148.31
2023-05-14T04:13:36.001Z,96142.00
2023-05-14T04:15:09.028Z,96140.19
2023-05-14T04:16:40.823Z,96147.84
2023-05-14T04:18:12.513Z,96144.03
2023-05-14T04:19:44.154Z,96148.94
2023-05-14T04:21:15.789Z,96141.09
2023-05-14T04:22:47.393Z,96148.63
2023-05-14T04:24:18.978Z,96145.25
2023-05-14T04:25:51.929Z,96137.38
2023-05-14T04:27:23.715Z,96142.69
2023-05-14T04:28:55.733Z,96140.44
2023-05-14T04:30:27.392Z,96150.38
2023-05-14T04:31:59.089Z,96150.38
2023-05-14T04:33:31.102Z,96147.75
2023-05-14T04:35:02.938Z,96142.81
2023-05-14T04:36:34.641Z,96141.28
2023-05-14T04:38:06.275Z,96154.22
2023-05-14T04:39:37.978Z,96149.34
2023-05-14T04:41:11.054Z,96142.41
2023-05-14T04:42:42.691Z,96146.97
2023-05-14T04:44:14.322Z,96144.34
2023-05-14T04:45:46.047Z,96147.44
2023-05-14T04:47:17.839Z,96146.75
2023-05-14T04:48:50.323Z,96148.31
2023-05-14T04:50:22.315Z,96141.78
2023-05-14T04:51:54.193Z,96148.31
2023-05-14T04:53:25.953Z,96146.75
2023-05-14T04:54:57.541Z,96152.47
2023-05-14T04:56:30.562Z,96144.34
2023-05-14T04:58:02.254Z,96153.97
2023-05-14T04:59:33.872Z,96149.28
2023-05-14T05:01:06.122Z,96147.34
2023-05-14T05:02:37.865Z,96151.13
2023-05-14T05:04:09.645Z,96152.38
2023-05-14T05:05:41.349Z,96150.78
2023-05-14T05:07:13.374Z,96147.75
2023-05-14T05:08:44.993Z,96149.22
2023-05-14T05:10:16.682Z,96142.34
2023-05-14T05:11:49.714Z,96152.31
2023-05-14T05:13:21.336Z,96150.91
2023-05-14T05:14:52.950Z,96146.31
2023-05-14T05:16:24.677Z,96147.47
2023-05-14T05:17:56.521Z,96150.84
2023-05-14T05:19:39.658Z,96145.56
2023-05-14T05:21:15.116Z,96153.34
2023-05-14T05:22:46.963Z,96146.09
2023-05-14T05:24:18.652Z,96149.47
2023-05-14T05:25:50.877Z,96147.22
2023-05-14T05:27:23.889Z,96152.97
2023-05-14T05:28:55.626Z,96152.25
2023-05-14T05:30:27.264Z,96153.81
2023-05-14T05:31:59.107Z,96149.53
2023-05-14T05:33:30.722Z,96150.66
2023-05-14T05:35:02.548Z,96147.94
2023-05-14T05:36:34.262Z,96147.81
2023-05-14T05:38:05.886Z,96148.75
2023-05-14T05:39:37.472Z,96146.19
2023-05-14T05:41:09.059Z,96150.97
2023-05-14T05:42:41.999Z,96148.53
2023-05-14T05:44:13.614Z,96148.53
2023-05-14T05:45:46.028Z,96150.00
2023-05-14T05:47:17.754Z,96148.38
2023-05-14T05:48:49.505Z,96146.63
2023-05-14T05:50:21.453Z,96149.34
2023-05-14T05:51:53.285Z,96148.47
2023-05-14T05:53:24.963Z,96157.31
2023-05-14T05:54:56.616Z,96147.25
2023-05-14T05:56:28.375Z,96154.28
2023-05-14T05:58:01.862Z,96151.31
2023-05-14T05:59:33.572Z,96160.03
2023-05-14T06:01:05.255Z,96149.41
2023-05-14T06:02:37.172Z,96152.38
2023-05-14T06:04:08.943Z,96149.34
2023-05-14T06:05:40.866Z,96154.47
2023-05-14T06:07:12.949Z,96154.56
2023-05-14T06:08:44.630Z,96154.28
2023-05-14T06:10:16.333Z,96157.06
2023-05-14T06:11:48.081Z,96162.28
2023-05-14T06:13:22.239Z,96150.00
2023-05-14T06:14:55.183Z,96153.44
2023-05-14T06:16:26.854Z,96145.44
2023-05-14T06:17:58.875Z,96145.13
2023-05-14T06:19:30.598Z,96150.63
2023-05-14T06:21:02.309Z,96158.56
2023-05-14T06:22:34.048Z,96152.91
2023-05-14T06:24:06.333Z,96151.50
2023-05-14T06:25:38.049Z,96152.69
2023-05-14T06:27:10.706Z,96142.81
2023-05-14T06:28:43.827Z,96150.91
2023-05-14T06:30:16.046Z,96148.41
2023-05-14T06:31:47.826Z,96142.06
2023-05-14T06:33:21.142Z,96148.94
2023-05-14T06:34:52.822Z,96146.56
2023-05-14T06:36:24.562Z,96150.06
2023-05-14T06:37:56.206Z,96146.25
2023-05-14T06:39:28.026Z,96147.75
2023-05-14T06:40:59.811Z,96151.59
2023-05-14T06:42:31.511Z,96153.50
2023-05-14T06:44:04.878Z,96153.88
2023-05-14T06:45:36.590Z,96150.78
2023-05-14T06:47:11.461Z,96153.88
2023-05-14T06:48:43.192Z,96149.97
2023-05-14T06:50:14.966Z,96157.66
2023-05-14T06:51:53.310Z,96155.88
2023-05-14T06:53:25.400Z,96151.00
2023-05-14T06:54:57.106Z,96149.63
2023-05-14T06:56:28.758Z,96150.41
2023-05-14T06:58:00.556Z,96152.97
2023-05-14T06:59:33.600Z,96153.41
2023-05-14T07:01:06.597Z,96148.06
2023-05-14T07:02:38.298Z,96158.34
2023-05-14T07:04:10.009Z,96150.63
2023-05-14T07:05:42.180Z,96155.66
2023-05-14T07:07:15.540Z,96152.38
2023-05-14T07:08:47.313Z,96154.09
2023-05-14T07:10:18.962Z,96150.81
2023-05-14T07:11:50.631Z,96157.25
2023-05-14T07:13:22.341Z,96152.53
2023-05-14T07:14:57.025Z,96158.34
2023-05-14T07:16:28.709Z,96158.34
2023-05-14T07:18:00.489Z,96144.25
2023-05-14T07:19:33.924Z,96150.81
2023-05-14T07:21:06.617Z,96149.75
2023-05-14T07:22:38.379Z,96152.25
2023-05-14T07:24:10.096Z,96146.75
2023-05-14T07:25:41.822Z,96148.88
2023-05-14T07:27:13.467Z,96148.69
2023-05-14T07:28:45.133Z,96146.91
2023-05-14T07:30:18.210Z,96147.84
2023-05-14T07:31:50.193Z,96148.88
2023-05-14T07:33:22.508Z,96155.00
2023-05-14T07:34:54.576Z,96149.88
2023-05-14T07:36:26.243Z,96152.06
2023-05-14T07:37:58.215Z,96156.53
2023-05-14T07:39:29.818Z,96152.06
2023-05-14T07:41:01.510Z,96144.78
2023-05-14T07:42:36.603Z,96147.91
2023-05-14T07:44:08.872Z,96143.53
2023-05-14T07:45:41.987Z,96139.53
2023-05-14T07:47:16.628Z,96145.25
2023-05-14T07:48:48.350Z,96149.19
2023-05-14T07:50:20.326Z,96144.72
2023-05-14T07:51:51.984Z,96147.47
2023-05-14T07:53:24.969Z,96139.47
2023-05-14T07:54:56.779Z,96143.22
2023-05-14T07:56:28.558Z,96144.53
2023-05-14T07:58:00.398Z,96139.81
2023-05-14T07:59:32.414Z,96140.78
2023-05-14T08:01:07.306Z,96133.59
2023-05-14T08:02:39.085Z,96133.25
2023-05-14T08:04:15.226Z,96136.41
2023-05-14T08:05:46.963Z,96139.41
2023-05-14T08:07:18.637Z,96138.75
2023-05-14T08:08:50.288Z,96140.13
2023-05-14T08:10:22.380Z,96132.63
2023-05-14T08:11:54.652Z,96133.66
2023-05-14T08:13:26.271Z,96142.53
2023-05-14T08:14:57.915Z,96137.25
2023-05-14T08:16:31.159Z,96139.59
2023-05-14T08:18:03.676Z,96130.50
2023-05-14T08:19:35.551Z,96134.66
2023-05-14T08:21:07.212Z,96132.63
2023-05-14T08:22:38.946Z,96127.81
2023-05-14T08:24:11.395Z,96130.91
2023-05-14T08:25:43.119Z,96127.50
2023-05-14T08:27:14.714Z,96131.56
2023-05-14T08:28:46.328Z,96127.66
2023-05-14T08:30:18.174Z,96129.50
2023-05-14T08:31:51.389Z,96131.09
2023-05-14T08:33:23.406Z,96123.34
2023-05-14T08:34:55.077Z,96130.03
2023-05-14T08:36:26.963Z,96126.19
2023-05-14T08:37:58.600Z,96131.16
2023-05-14T08:39:30.312Z,96133.47
2023-05-14T08:41:01.947Z,96126.63
2023-05-14T08:42:33.685Z,96127.50
2023-05-14T08:44:09.219Z,96121.41
2023-05-14T08:45:40.886Z,96126.53
2023-05-14T08:47:14.026Z,96127.00
2023-05-14T08:48:47.196Z,96126.69
2023-05-14T08:50:22.767Z,96129.78
2023-05-14T08:51:57.291Z,96121.63
2023-05-14T08:53:28.985Z,96121.34
2023-05-14T08:55:01.062Z,96118.22
2023-05-14T08:56:32.778Z,96125.47
2023-05-14T08:58:04.478Z,96114.97
2023-05-14T08:59:36.123Z,96117.69
2023-05-14T09:01:07.745Z,96115.34
2023-05-14T09:02:41.251Z,96111.03
2023-05-14T09:04:15.564Z,96118.78
2023-05-14T09:05:48.450Z,96123.66
2023-05-14T09:07:20.081Z,96119.03
2023-05-14T09:08:51.781Z,96112.59
2023-05-14T09:10:23.677Z,96117.56
2023-05-14T09:11:55.681Z,96116.22
2023-05-14T09:13:28.410Z,96111.94
2023-05-14T09:15:00.129Z,96112.41
2023-05-14T09:16:31.798Z,96109.28
2023-05-14T09:18:06.566Z,96113.19
2023-05-14T09:19:40.197Z,96104.09
2023-05-14T09:21:13.469Z,96107.50
2023-05-14T09:22:45.429Z,96103.94
2023-05-14T09:24:20.857Z,96109.38
2023-05-14T09:25:52.739Z,96107.53
2023-05-14T09:27:25.934Z,96103.41
2023-05-14T09:28:57.806Z,96110.28
2023-05-14T09:30:50.067Z,96106.97
2023-05-14T09:32:21.756Z,96101.72
2023-05-14T09:33:54.903Z,96103.19
2023-05-14T09:35:26.658Z,96105.03
2023-05-14T09:36:59.008Z,96107.75
2023-05-14T09:38:31.012Z,96105.00
2023-05-14T09:40:06.425Z,96104.31
2023-05-14T09:41:38.317Z,96103.63
2023-05-14T09:43:09.983Z,96100.66
2023-05-14T09:44:41.660Z,96102.97
2023-05-14T09:46:13.433Z,96103.38
2023-05-14T09:47:45.525Z,96103.13
2023-05-14T09:49:19.233Z,96097.38
2023-05-14T09:50:52.111Z,96098.09
2023-05-14T09:52:23.912Z,96096.63
2023-05-14T09:53:56.221Z,96096.31
2023-05-14T09:55:28.037Z,96090.59
2023-05-14T09:56:59.783Z,96089.84
2023-05-14T09:58:31.444Z,96087.22
2023-05-14T10:00:03.943Z,96089.97
2023-05-14T10:01:35.877Z,96083.72
2023-05-14T10:03:08.127Z,96089.38
2023-05-14T10:04:41.294Z,96087.84
2023-05-14T10:06:13.397Z,96084.81
2023-05-14T10:07:47.866Z,96076.44
2023-05-14T10:09:19.662Z,96085.63
2023-05-14T10:10:51.915Z,96078.69
2023-05-14T10:12:23.625Z,96083.34
2023-05-14T10:13:57.583Z,96071.81
2023-05-14T10:15:33.108Z,96077.22
2023-05-14T10:17:05.099Z,96089.56
2023-05-14T10:18:40.251Z,96085.44
2023-05-14T10:20:13.638Z,96078.56
2023-05-14T10:21:45.971Z,96072.16
2023-05-14T10:23:17.923Z,96082.09
2023-05-14T10:24:52.599Z,96079.56
2023-05-14T10:26:24.376Z,96079.25
2023-05-14T10:27:56.139Z,96073.19
2023-05-14T10:29:32.555Z,96077.41
2023-05-14T10:31:04.250Z,96076.25
2023-05-14T10:32:38.059Z,96071.97
2023-05-14T10:34:18.826Z,96075.44
2023-05-14T10:36:00.564Z,96071.59
2023-05-14T10:37:32.314Z,96067.41
2023-05-14T10:39:06.833Z,96071.16
2023-05-14T10:40:39.409Z,96075.78
2023-05-14T10:42:11.232Z,96073.91
2023-05-14T10:43:43.324Z,96077.38
2023-05-14T10:45:15.284Z,96068.47
2023-05-14T10:46:47.018Z,96075.34
2023-05-14T10:48:19.830Z,96071.13
2023-05-14T10:49:54.761Z,96079.56
2023-05-14T10:51:28.012Z,96074.16
2023-05-14T10:52:59.799Z,96072.63
2023-05-14T10:54:31.598Z,96073.72
2023-05-14T10:56:06.174Z,96068.69
2023-05-14T10:57:38.946Z,96072.47
2023-05-14T10:59:11.652Z,96067.13
2023-05-14T11:00:43.404Z,96074.41
2023-05-14T11:02:19.480Z,96063.69
2023-05-14T11:03:51.105Z,96060.97
2023-05-14T11:05:22.879Z,96056.81
2023-05-14T11:06:56.304Z,96069.09
2023-05-14T11:08:29.369Z,96064.47
2023-05-14T11:10:04.688Z,96060.66
2023-05-14T11:11:36.777Z,96058.50
2023-05-14T11:13:08.496Z,96053.94
2023-05-14T11:14:40.243Z,96058.53
2023-05-14T11:16:22.575Z,96046.75
2023-05-14T11:17:55.523Z,96052.19
2023-05-14T11:19:27.412Z,96057.94
2023-05-14T11:20:59.505Z,96046.53
2023-05-14T11:22:40.254Z,96046.94
2023-05-14T11:24:12.000Z,96051.53
2023-05-14T11:25:43.924Z,96045.44
2023-05-14T11:27:16.066Z,96037.34
2023-05-14T11:28:47.728Z,96044.63
2023-05-14T11:30:21.734Z,96045.28
2023-05-14T11:31:53.582Z,96050.84
2023-05-14T11:33:25.495Z,96047.03
2023-05-14T11:34:57.955Z,96039.38
2023-05-14T11:36:29.631Z,96046.25
2023-05-14T11:38:03.071Z,96041.28
2023-05-14T11:39:36.060Z,96044.72
2023-05-14T11:41:07.718Z,96036.31
2023-05-14T11:42:39.477Z,96040.94
2023-05-14T11:44:11.113Z,96039.50
2023-05-14T11:45:43.310Z,96039.94
2023-05-14T11:47:15.152Z,96038.78
2023-05-14T11:48:47.247Z,96033.47
2023-05-14T11:50:19.297Z,96033.50
2023-05-14T11:51:51.332Z,96032.75
2023-05-14T11:53:28.070Z,96045.75
2023-05-14T11:55:10.591Z,96034.91
2023-05-14T11:56:43.111Z,96035.50
2023-05-14T11:58:25.840Z,96035.38
2023-05-14T12:00:00.573Z,96031.50
2023-05-14T12:01:45.761Z,96030.28
2023-05-14T12:03:39.162Z,96028.09
2023-05-14T12:08:11.891Z,96033.63
2023-05-14T12:10:43.605Z,96033.28
2023-05-14T12:12:27.347Z,96029.19
2023-05-14T12:16:09.011Z,96021.88
2023-05-14T12:17:46.879Z,96021.88
2023-05-14T12:21:26.919Z,96015.47
2023-05-14T12:23:20.126Z,96012.00
2023-05-14T12:25:05.516Z,96022.88
2023-05-14T12:26:53.257Z,96018.66
2023-05-14T12:28:31.585Z,96012.88
2023-05-14T12:31:51.368Z,96013.19
2023-05-14T12:33:24.231Z,96002.81
2023-05-14T12:35:18.792Z,96008.22
2023-05-14T12:36:50.437Z,96006.72
2023-05-14T12:38:22.075Z,95999.00
2023-05-14T12:39:54.299Z,95995.94
2023-05-14T12:41:25.877Z,96002.84
2023-05-14T12:42:58.841Z,95996.75
2023-05-14T12:44:30.600Z,96000.56
2023-05-14T12:46:02.204Z,95995.19
2023-05-14T12:47:33.941Z,95994.34
2023-05-14T12:49:06.921Z,95995.41
2023-05-14T12:50:38.529Z,96000.00
2023-05-14T12:52:22.760Z,95996.09
2023-05-14T12:54:01.692Z,95999.59
2023-05-14T12:55:34.283Z,96002.38
2023-05-14T12:57:06.268Z,95995.50
2023-05-14T12:58:39.245Z,96002.09
2023-05-14T13:00:14.497Z,96008.28
2023-05-14T13:01:46.164Z,95999.44
2023-05-14T13:03:21.147Z,96002.13
2023-05-14T13:04:52.996Z,96004.41
2023-05-14T13:06:24.600Z,95997.44
2023-05-14T13:07:58.708Z,96001.31
2023-05-14T13:09:30.340Z,96002.50
2023-05-14T13:11:01.963Z,95997.13
2023-05-14T13:12:33.547Z,95989.06
2023-05-14T13:14:06.564Z,95993.66
2023-05-14T13:15:38.519Z,95992.84
2023-05-14T13:17:10.152Z,95992.44
2023-05-14T13:18:41.747Z,95994.38
2023-05-14T13:20:13.435Z,95987.44
2023-05-14T13:21:45.093Z,95985.91
2023-05-14T13:23:16.690Z,95991.56
2023-05-14T13:24:48.373Z,95991.63
2023-05-14T13:26:20.062Z,95984.34
2023-05-14T13:27:51.699Z,95982.06
2023-05-14T13:29:24.700Z,95994.28
2023-05-14T13:31:06.993Z,95989.34
2023-05-14T13:32:39.637Z,95983.59
2023-05-14T13:34:13.182Z,95989.38
2023-05-14T13:35:44.925Z,95983.25
2023-05-14T13:37:16.622Z,95973.69
2023-05-14T13:38:48.461Z,95981.41
2023-05-14T13:40:20.196Z,95976.41
2023-05-14T13:41:51.856Z,95974.81
2023-05-14T13:43:23.582Z,95972.06
2023-05-14T13:44:57.468Z,95972.06
2023-05-14T13:46:29.179Z,95968.97
2023-05-14T13:48:00.864Z,95971.28
2023-05-14T13:49:32.648Z,95971.25
2023-05-14T13:51:04.400Z,95965.94
2023-05-14T13:52:36.558Z,95959.00
2023-05-14T13:54:08.203Z,95961.69
2023-05-14T13:55:39.920Z,95960.56
2023-05-14T13:57:14.188Z,95965.97
2023-05-14T13:58:45.804Z,95964.06
2023-05-14T14:00:19.263Z,95956.41
2023-05-14T14:01:51.667Z,95961.44
2023-05-14T14:03:23.522Z,95970.63
2023-05-14T14:04:55.101Z,95962.16
2023-05-14T14:06:27.416Z,95956.44
2023-05-14T14:08:04.565Z,95959.88
2023-05-14T14:09:45.136Z,95956.38
2023-05-14T14:11:17.634Z,95945.16
2023-05-14T14:12:49.361Z,95951.69
2023-05-14T14:14:20.963Z,95947.81
2023-05-14T14:15:53.952Z,95944.34
2023-05-14T14:17:25.666Z,95942.84
2023-05-14T14:18:57.485Z,95942.41
2023-05-14T14:20:29.344Z,95939.41
2023-05-14T14:22:01.031Z,95936.91
2023-05-14T14:23:32.701Z,95939.25
2023-05-14T14:25:04.921Z,95942.03
2023-05-14T14:26:36.711Z,95941.28
2023-05-14T14:28:08.432Z,95938.94
2023-05-14T14:29:40.055Z,95940.06
2023-05-14T14:31:13.167Z,95943.38
2023-05-14T14:32:45.133Z,95937.13
2023-05-14T14:34:16.765Z,95937.31
2023-05-14T14:35:48.434Z,95932.13
2023-05-14T14:37:21.265Z,95927.50
2023-05-14T14:38:54.680Z,95937.19
2023-05-14T14:40:26.400Z,95928.13
2023-05-14T14:41:57.989Z,95931.91
2023-05-14T14:43:29.649Z,95927.28
2023-05-14T14:45:01.240Z,95928.41
2023-05-14T14:46:34.458Z,95930.25
2023-05-14T14:48:25.817Z,95927.59
2023-05-14T14:49:57.501Z,95925.69
2023-05-14T14:51:30.192Z,95920.84
2023-05-14T14:53:01.869Z,95926.38
2023-05-14T14:54:33.453Z,95920.69
2023-05-14T14:56:07.150Z,95918.91
2023-05-14T14:57:38.802Z,95917.63
2023-05-14T14:59:10.462Z,95915.16
2023-05-14T15:00:42.105Z,95913.16
2023-05-14T15:02:15.180Z,95908.28
2023-05-14T15:03:48.395Z,95902.66
2023-05-14T15:05:20.108Z,95904.97
2023-05-14T15:06:51.677Z,95898.25
2023-05-14T15:08:25.316Z,95886.34
2023-05-14T15:09:56.921Z,95901.19
2023-05-14T15:11:29.071Z,95900.06
2023-05-14T15:13:00.701Z,95896.22
2023-05-14T15:14:32.329Z,95898.66
2023-05-14T15:16:04.047Z,95899.09
2023-05-14T15:17:37.033Z,95906.44
2023-05-14T15:19:08.715Z,95895.50
2023-05-14T15:20:40.533Z,95902.78
2023-05-14T15:22:12.169Z,95908.19
2023-05-14T15:23:43.756Z,95915.72
2023-05-14T15:25:15.458Z,95909.19
2023-05-14T15:26:47.275Z,95911.13
2023-05-14T15:28:18.851Z,95910.97
2023-05-14T15:29:50.458Z,95912.16
2023-05-14T15:31:22.107Z,95911.97
2023-05-14T15:32:55.156Z,95912.38
2023-05-14T15:34:26.737Z,95920.03
2023-05-14T15:35:58.497Z,95913.44
2023-05-14T15:37:31.871Z,95921.22
2023-05-14T15:39:03.849Z,95919.78
2023-05-14T15:40:35.556Z,95921.31
2023-05-14T15:42:07.332Z,95916.75
2023-05-14T15:43:38.942Z,95922.59
2023-05-14T15:45:11.809Z,95921.41
2023-05-14T15:46:43.564Z,95918.69
2023-05-14T15:48:16.631Z,95919.06
2023-05-14T15:49:48.262Z,95921.84
2023-05-14T15:51:19.851Z,95923.41
2023-05-14T15:52:51.447Z,95935.72
2023-05-14T15:54:23.087Z,95943.00
2023-05-14T15:55:54.723Z,95965.66
2023-05-14T15:57:26.383Z,95995.63
2023-05-14T15:58:58.025Z,95999.50
2023-05-14T16:00:29.875Z,96005.78
2023-05-14T16:02:01.721Z,96015.28
2023-05-14T16:03:34.783Z,96019.56
2023-05-14T16:07:28.841Z,96003.75
2023-05-14T16:09:01.531Z,95998.78
2023-05-14T16:10:33.170Z,96002.94
2023-05-14T16:12:06.007Z,96002.13
2023-05-14T16:13:39.145Z,96004.31
2023-05-14T16:15:11.457Z,95994.59
2023-05-14T16:16:43.210Z,95999.72
2023-05-14T16:18:15.057Z,96000.06
2023-05-14T16:19:48.353Z,95992.88
2023-05-14T16:21:20.059Z,95990.88
2023-05-14T16:22:51.688Z,95998.16
2023-05-14T16:24:23.340Z,96002.56
2023-05-14T16:25:55.015Z,95999.03
2023-05-14T16:27:27.131Z,95994.53
2023-05-14T16:28:58.910Z,95992.50
2023-05-14T16:30:30.626Z,95991.25
2023-05-14T16:32:02.634Z,95996.34
2023-05-14T16:33:34.507Z,95988.78
2023-05-14T16:35:08.550Z,95989.22
2023-05-14T16:36:40.322Z,95990.59
2023-05-14T16:38:12.026Z,95990.06
2023-05-14T16:39:46.672Z,95989.25
2023-05-14T16:41:18.363Z,95994.66
2023-05-14T16:42:50.034Z,95991.66
2023-05-14T16:44:22.143Z,95996.91
2023-05-14T16:45:54.307Z,95998.34
2023-05-14T16:47:26.078Z,95996.44
2023-05-14T16:48:57.866Z,95981.72
2023-05-14T16:50:31.296Z,95988.91
2023-05-14T16:52:03.148Z,95989.38
2023-05-14T16:53:37.523Z,95986.94
2023-05-14T16:55:11.478Z,95990.47
2023-05-14T16:56:48.040Z,95995.91
2023-05-14T16:58:20.025Z,95991.94
2023-05-14T16:59:51.783Z,95983.16
2023-05-14T17:01:23.452Z,95997.28
2023-05-14T17:02:55.439Z,95980.09
2023-05-14T17:04:29.023Z,95987.66
2023-05-14T17:06:02.706Z,95983.75
2023-05-14T17:07:34.376Z,95986.06
2023-05-14T17:09:06.967Z,95989.91
2023-05-14T17:10:38.740Z,95986.50
2023-05-14T17:12:11.315Z,95992.78
2023-05-14T17:13:46.233Z,95996.88
2023-05-14T17:15:18.136Z,95998.03
2023-05-14T17:16:50.275Z,96004.38
2023-05-14T17:18:21.932Z,96007.13
2023-05-14T17:19:53.812Z,95999.38
2023-05-14T17:21:26.878Z,96010.34
2023-05-14T17:22:58.547Z,96016.22
2023-05-14T17:24:30.298Z,96006.91
2023-05-14T17:26:03.225Z,96008.03
2023-05-14T17:27:36.157Z,96010.59
2023-05-14T17:29:08.168Z,96006.81
2023-05-14T17:30:40.288Z,96002.59
2023-05-14T17:32:12.042Z,96006.41
2023-05-14T17:33:46.736Z,96008.91
2023-05-14T17:35:18.382Z,96005.44
2023-05-14T17:36:51.403Z,96003.75
2023-05-14T17:38:23.044Z,96011.91
2023-05-14T17:39:54.843Z,96005.00
2023-05-14T17:41:26.705Z,96002.13
2023-05-14T17:42:58.417Z,96007.53
2023-05-14T17:44:30.173Z,96003.69
2023-05-14T17:46:01.831Z,96004.59
2023-05-14T17:47:33.494Z,96008.34
2023-05-14T17:49:05.214Z,96011.84
2023-05-14T17:50:36.954Z,96008.31
2023-05-14T17:52:10.588Z,96013.69
2023-05-14T17:53:42.187Z,96014.78
2023-05-14T17:55:13.961Z,96009.16
2023-05-14T17:56:46.083Z,96012.50
2023-05-14T17:58:17.897Z,96009.47
2023-05-14T17:59:49.636Z,96010.84
2023-05-14T18:01:21.341Z,96008.81
2023-05-14T18:02:53.035Z,96010.31
2023-05-14T18:04:24.901Z,96017.31
2023-05-14T18:05:56.666Z,96013.16
2023-05-14T18:07:29.870Z,96008.94
2023-05-14T18:09:01.496Z,96012.25
2023-05-14T18:10:33.196Z,96019.53
2023-05-14T18:12:05.518Z,96017.38
2023-05-14T18:13:37.256Z,96020.63
2023-05-14T18:15:09.542Z,96015.97
2023-05-14T18:16:41.288Z,96016.88
2023-05-14T18:18:13.555Z,96019.00
2023-05-14T18:19:45.524Z,96017.22
2023-05-14T18:21:17.195Z,96023.00